Time;durP1;ratioP1;P1;durP2;ratioP2;P2;SDS_P1;SDS_P2;PMS_P1;PMS_P2;Temp;Humidity;BMP_temperature;BMP_pressure;BME280_temperature;BME280_humidity;BME280_pressure;Samples;Min_cycle;Max_cycle;Signal;HPM_P1;HPM_P2
2022/01/14 00:00:04;;;;;;;30.30;22.17;;;;;;;-6.07;76.86;93952.41;5008136;28;20275;-80
2022/01/14 00:02:30;;;;;;;28.43;21.23;;;;;;;-6.17;76.32;93933.91;5007444;28;20239;-80
2022/01/14 00:04:55;;;;;;;27.67;20.40;;;;;;;-5.96;75.94;93952.97;5009163;28;20191;-80
2022/01/14 00:07:21;;;;;;;28.40;20.63;;;;;;;-5.88;75.28;93955.56;5009602;28;21355;-80
2022/01/14 00:09:47;;;;;;;32.47;20.17;;;;;;;-5.93;75.61;93927.25;5012605;28;20214;-80
2022/01/14 00:12:18;;;;;;;26.87;21.87;;;;;;;-5.79;75.86;93952.13;5011976;28;20215;-79
2022/01/14 00:15:23;;;;;;;30.50;20.77;;;;;;;-6.00;76.90;93946.59;5011740;28;20187;-79
2022/01/14 00:17:32;;;;;;;27.57;20.97;;;;;;;-6.05;77.13;93968.28;5011080;28;20261;-79
2022/01/14 00:19:57;;;;;;;29.17;20.90;;;;;;;-5.78;75.89;93956.28;5012368;28;20191;-79
2022/01/14 00:22:25;;;;;;;34.93;18.93;;;;;;;-6.10;76.50;93948.41;5010572;28;20254;-80
2022/01/14 00:33:09;;;;;;;28.50;19.80;;;;;;;-5.52;75.04;93982.50;5011418;28;20283;-79
2022/01/14 00:35:40;;;;;;;26.53;19.00;;;;;;;-5.85;76.24;93969.75;5011424;28;20239;-80
2022/01/14 00:38:06;;;;;;;31.67;20.80;;;;;;;-6.20;77.35;93962.13;5011322;28;20948;-79
2022/01/14 00:40:33;;;;;;;28.43;18.77;;;;;;;-5.84;77.14;93981.50;5011702;28;20227;-80
2022/01/14 00:42:58;;;;;;;25.97;18.00;;;;;;;-5.86;77.11;93963.88;5011357;28;20223;-81
2022/01/14 00:45:24;;;;;;;32.70;19.83;;;;;;;-6.05;77.45;93989.44;5010360;28;20210;-80
2022/01/14 00:47:50;;;;;;;28.80;19.30;;;;;;;-5.82;77.83;93985.50;5012225;28;20211;-79
2022/01/14 00:50:17;;;;;;;27.30;19.60;;;;;;;-5.77;77.29;93980.75;5011278;28;20206;-79
2022/01/14 00:52:43;;;;;;;24.63;18.90;;;;;;;-5.58;76.34;93979.75;5011513;28;20191;-79
2022/01/14 00:55:13;;;;;;;26.20;18.13;;;;;;;-5.78;77.04;93986.78;5010995;28;20192;-79
2022/01/14 01:00:26;;;;;;;24.40;19.30;;;;;;;-5.82;76.97;93972.00;5011103;28;20198;-79
2022/01/14 01:02:52;;;;;;;27.77;19.00;;;;;;;-5.84;76.57;93982.31;5011713;28;20198;-79
2022/01/14 01:05:19;;;;;;;23.80;17.60;;;;;;;-5.64;75.55;93998.97;5010547;28;20191;-78
2022/01/14 01:07:50;;;;;;;22.53;17.77;;;;;;;-5.32;72.98;93989.00;5009507;28;20188;-77
2022/01/14 01:10:17;;;;;;;22.33;17.43;;;;;;;-5.05;71.00;93990.59;5010078;28;20200;-77
2022/01/14 01:12:56;;;;;;;21.43;16.43;;;;;;;-4.96;70.53;93970.13;5008190;28;20191;-78
2022/01/14 01:15:22;;;;;;;21.70;15.90;;;;;;;-4.97;69.64;93957.53;5011076;28;20263;-78
2022/01/14 01:17:49;;;;;;;20.50;17.10;;;;;;;-4.78;69.85;93936.94;5010075;28;20226;-78
2022/01/14 01:20:18;;;;;;;20.07;15.93;;;;;;;-4.67;67.81;93948.56;5010698;28;20187;-77
2022/01/14 01:22:51;;;;;;;17.30;14.60;;;;;;;-4.45;66.52;93937.81;5010570;28;20442;-78
2022/01/14 01:25:21;;;;;;;17.33;14.90;;;;;;;-4.60;66.38;93919.78;5010595;28;20191;-77
2022/01/14 01:27:48;;;;;;;21.93;16.70;;;;;;;-4.45;67.24;93941.16;5011770;28;20180;-78
2022/01/14 01:30:26;;;;;;;18.33;15.17;;;;;;;-4.46;67.12;93946.41;5011200;28;20187;-75
2022/01/14 01:32:52;;;;;;;16.47;13.93;;;;;;;-4.41;66.75;93944.19;5010174;28;20195;-77
2022/01/14 01:35:17;;;;;;;16.57;14.73;;;;;;;-4.36;67.09;93944.53;5009394;28;20224;-78
2022/01/14 01:37:43;;;;;;;18.63;15.13;;;;;;;-4.29;65.39;93941.19;5009675;28;20374;-78
2022/01/14 01:40:10;;;;;;;19.87;16.43;;;;;;;-4.54;68.02;93947.19;5008718;28;20224;-78
2022/01/14 01:42:39;;;;;;;17.67;14.80;;;;;;;-4.27;64.61;93939.28;5010541;28;20296;-78
2022/01/14 01:45:09;;;;;;;60.43;31.57;;;;;;;-4.32;65.52;93933.03;5010024;28;20254;-78
2022/01/14 01:47:37;;;;;;;27.87;19.40;;;;;;;-4.20;65.40;93926.72;5009982;28;20234;-78
2022/01/14 01:50:30;;;;;;;30.83;21.67;;;;;;;-4.28;65.97;93926.69;5009711;28;20412;-79
2022/01/14 01:52:56;;;;;;;16.37;14.03;;;;;;;-4.12;63.38;93930.06;5008135;28;20211;-77
2022/01/14 01:55:23;;;;;;;16.90;15.10;;;;;;;-4.12;63.93;93926.69;5007311;28;20179;-78
2022/01/14 01:57:53;;;;;;;21.97;15.67;;;;;;;-4.19;64.51;93918.09;5011562;28;20963;-78
2022/01/14 02:00:25;;;;;;;14.70;13.13;;;;;;;-4.28;65.38;93924.16;5008880;28;20199;-77
2022/01/14 02:02:53;;;;;;;19.47;16.13;;;;;;;-4.37;65.86;93920.00;5009176;28;20203;-78
2022/01/14 02:05:19;;;;;;;17.13;13.80;;;;;;;-4.50;64.39;93899.25;5009178;28;20259;-78
2022/01/14 02:07:45;;;;;;;17.90;15.00;;;;;;;-4.23;64.08;93916.81;5009720;28;20211;-78
2022/01/14 02:10:11;;;;;;;18.33;14.50;;;;;;;-4.42;63.56;93876.34;5009556;28;20242;-78
2022/01/14 02:12:45;;;;;;;16.03;14.33;;;;;;;-4.20;63.05;93891.03;5010163;28;20246;-78
2022/01/14 02:15:15;;;;;;;15.37;13.70;;;;;;;-4.11;61.81;93893.41;5007799;28;20183;-79
2022/01/14 02:23:05;;;;;;;14.13;12.43;;;;;;;-3.77;58.80;93888.13;5008457;28;20246;-78
2022/01/14 02:25:31;;;;;;;14.37;13.00;;;;;;;-3.66;58.55;93869.94;5009443;28;20925;-79
2022/01/14 02:28:02;;;;;;;14.93;13.47;;;;;;;-3.81;58.07;93881.75;5025283;28;20236;-77
2022/01/14 02:30:29;;;;;;;15.90;14.20;;;;;;;-3.79;59.64;93867.09;5007612;28;20215;-78
2022/01/14 02:32:56;;;;;;;14.03;12.57;;;;;;;-3.89;59.13;93880.00;5009447;28;20521;-78
2022/01/14 02:35:22;;;;;;;16.03;14.27;;;;;;;-3.80;59.54;93870.59;5007916;28;20780;-77
2022/01/14 02:37:48;;;;;;;21.83;15.33;;;;;;;-4.00;61.64;93877.78;5008927;28;20223;-76
2022/01/14 02:40:14;;;;;;;20.53;15.93;;;;;;;-3.82;61.51;93883.53;5009655;28;20229;-76
2022/01/14 02:42:39;;;;;;;20.03;16.50;;;;;;;-4.13;61.06;93871.56;5008766;28;20226;-78
2022/01/14 02:45:07;;;;;;;25.37;16.07;;;;;;;-4.03;62.84;93888.28;5010989;28;20184;-78
2022/01/14 02:47:33;;;;;;;22.53;18.00;;;;;;;-4.02;62.61;93878.91;5009860;28;20246;-78
2022/01/14 02:49:59;;;;;;;25.10;18.03;;;;;;;-4.25;63.98;93878.72;5009427;28;20209;-77
2022/01/14 02:55:18;;;;;;;27.10;17.47;;;;;;;-4.47;64.38;93848.00;5008279;28;20198;-78
2022/01/14 02:57:49;;;;;;;22.03;17.57;;;;;;;-4.41;64.55;93867.75;5009176;28;20246;-77
2022/01/14 03:00:16;;;;;;;23.13;16.50;;;;;;;-4.25;63.95;93872.84;5024741;28;20200;-76
2022/01/14 03:02:46;;;;;;;20.53;15.90;;;;;;;-4.42;64.70;93836.34;5009402;28;20183;-77
2022/01/14 03:05:12;;;;;;;16.73;14.60;;;;;;;-4.18;61.11;93835.56;5008697;28;20191;-78
2022/01/14 03:07:39;;;;;;;19.37;14.80;;;;;;;-4.32;63.13;93813.25;5008573;28;20305;-78
2022/01/14 03:10:06;;;;;;;18.40;14.67;;;;;;;-4.14;62.92;93829.19;5008164;28;20254;-77
2022/01/14 03:12:32;;;;;;;20.87;15.03;;;;;;;-4.22;64.13;93840.22;5008768;28;20223;-77
2022/01/14 03:14:58;;;;;;;20.17;16.20;;;;;;;-4.39;64.27;93819.97;5008956;28;20198;-77
2022/01/14 03:17:23;;;;;;;18.13;15.53;;;;;;;-4.52;66.16;93801.81;5008113;28;20235;-77
2022/01/14 03:19:49;;;;;;;16.90;14.73;;;;;;;-4.55;66.92;93814.84;5009030;28;20222;-80
2022/01/14 03:22:20;;;;;;;16.00;14.40;;;;;;;-4.31;65.41;93807.22;5008811;28;20215;-78
2022/01/14 03:27:12;;;;;;;16.27;14.57;;;;;;;-4.58;67.38;93789.72;5009135;28;20223;-78
2022/01/14 03:29:38;;;;;;;14.00;12.53;;;;;;;-4.24;63.85;93798.78;5008995;28;20195;-78
2022/01/14 03:32:04;;;;;;;15.60;13.80;;;;;;;-3.92;58.68;93773.22;5005648;28;20242;-78
2022/01/14 03:34:30;;;;;;;14.97;13.57;;;;;;;-3.63;59.14;93772.66;5009273;28;20196;-78
2022/01/14 03:36:57;;;;;;;15.03;13.53;;;;;;;-3.58;58.01;93776.28;5007420;28;20231;-78
2022/01/14 03:39:23;;;;;;;18.30;12.50;;;;;;;-3.52;58.88;93782.50;5008978;28;20238;-78
2022/01/14 03:41:49;;;;;;;17.47;15.77;;;;;;;-3.67;59.70;93745.88;5010701;28;20234;-78
2022/01/14 03:44:15;;;;;;;14.80;13.47;;;;;;;-4.06;61.07;93701.72;5012563;28;20196;-76
2022/01/14 03:46:41;;;;;;;19.10;13.97;;;;;;;-3.63;62.65;93770.13;5012234;28;20227;-77
2022/01/14 03:49:07;;;;;;;16.57;14.43;;;;;;;-3.78;63.33;93744.47;5024597;28;20256;-78
2022/01/14 03:51:32;;;;;;;13.83;12.53;;;;;;;-3.91;64.55;93771.47;5012296;28;20253;-78
2022/01/14 03:53:58;;;;;;;15.23;13.63;;;;;;;-3.94;61.89;93756.50;5012256;28;20192;-78
2022/01/14 03:56:25;;;;;;;13.23;12.13;;;;;;;-3.77;55.97;93714.69;5012589;28;20239;-81
2022/01/14 03:58:51;;;;;;;13.57;12.20;;;;;;;-3.14;53.61;93784.25;5011082;28;20211;-80
2022/01/14 04:01:18;;;;;;;13.33;12.33;;;;;;;-3.10;53.07;93782.97;5012442;28;20227;-80
2022/01/14 04:03:43;;;;;;;13.73;12.60;;;;;;;-3.14;55.72;93781.69;5012293;28;20199;-80
2022/01/14 04:06:10;;;;;;;18.57;13.17;;;;;;;-3.17;55.32;93779.47;5010390;28;20242;-80
2022/01/14 04:08:36;;;;;;;13.87;12.70;;;;;;;-3.26;55.78;93785.59;5012406;28;20223;-80
2022/01/14 04:11:03;;;;;;;14.73;13.23;;;;;;;-3.22;56.54;93763.06;5011289;28;20682;-80
2022/01/14 04:16:16;;;;;;;16.80;13.83;;;;;;;-3.40;57.60;93783.72;5010942;28;20237;-81
2022/01/14 04:18:42;;;;;;;15.07;13.47;;;;;;;-3.33;57.95;93766.78;5011781;28;20207;-81
2022/01/14 04:21:07;;;;;;;15.13;13.47;;;;;;;-3.32;57.78;93760.72;5011880;28;20235;-80
2022/01/14 04:23:33;;;;;;;21.17;15.40;;;;;;;-3.39;58.76;93764.88;5011585;28;20211;-80
2022/01/14 04:25:58;;;;;;;19.57;16.17;;;;;;;-3.52;59.34;93754.44;5011752;28;20219;-80
2022/01/14 04:28:26;;;;;;;18.80;15.73;;;;;;;-3.62;60.16;93756.38;5011034;28;20221;-80
2022/01/14 04:30:56;;;;;;;18.73;16.30;;;;;;;-3.83;62.08;93766.34;5010798;28;20270;-81
2022/01/14 04:33:23;;;;;;;22.23;16.40;;;;;;;-3.88;63.94;93769.41;5011293;28;20203;-80
2022/01/14 04:35:49;;;;;;;23.90;17.03;;;;;;;-3.96;64.32;93771.16;5010607;28;21162;-80
2022/01/14 04:38:15;;;;;;;21.00;17.07;;;;;;;-4.17;64.05;93723.25;5008192;28;20303;-75
2022/01/14 04:40:40;;;;;;;27.07;18.80;;;;;;;-3.91;63.18;93754.44;5009495;28;20702;-77
2022/01/14 04:43:07;;;;;;;26.97;18.53;;;;;;;-4.24;64.36;93726.59;5011206;28;20278;-78
2022/01/14 04:48:03;;;;;;;28.33;20.83;;;;;;;-4.17;64.03;93732.66;5010177;28;20191;-80
2022/01/14 04:50:29;;;;;;;29.20;20.73;;;;;;;-4.25;65.02;93776.00;5008394;28;20191;-79
2022/01/14 04:52:55;;;;;;;27.23;19.87;;;;;;;-4.19;65.38;93760.88;5008393;28;20187;-78
2022/01/14 04:55:24;;;;;;;27.67;20.20;;;;;;;-4.34;66.62;93746.38;5009493;28;20191;-80
2022/01/14 04:57:51;;;;;;;25.60;18.30;;;;;;;-4.54;66.35;93724.72;5011117;28;20258;-86
2022/01/14 05:00:20;;;;;;;20.47;18.07;;;;;;;-3.92;65.25;93777.53;5008686;28;20210;-87
2022/01/14 05:02:46;;;;;;;29.60;16.77;;;;;;;-4.26;66.37;93764.19;5012438;28;20283;-82
2022/01/14 05:05:12;;;;;;;21.80;18.20;;;;;;;-4.43;67.59;93770.25;5010506;28;20180;-82
2022/01/14 05:07:38;;;;;;;24.83;16.97;;;;;;;-4.25;67.41;93751.28;5008057;28;20238;-79
2022/01/14 05:12:36;;;;;;;27.47;17.73;;;;;;;-4.38;68.15;93753.56;5007922;28;21817;-77
2022/01/14 05:15:03;;;;;;;22.83;17.00;;;;;;;-4.46;69.14;93730.63;5010346;28;20231;-80
2022/01/14 05:17:28;;;;;;;154.47;50.37;;;;;;;-4.24;68.57;93741.91;5025123;28;20298;-84
2022/01/14 05:19:58;;;;;;;32.57;20.37;;;;;;;-4.24;67.93;93741.91;5009996;28;20194;-76
2022/01/14 05:22:24;;;;;;;29.60;18.30;;;;;;;-4.22;69.16;93743.34;5010408;28;20231;-75
2022/01/14 05:24:50;;;;;;;28.57;20.53;;;;;;;-4.16;69.44;93744.44;5008451;28;20203;-82
2022/01/14 05:27:15;;;;;;;31.93;21.83;;;;;;;-4.65;71.18;93732.72;5008134;28;20237;-82
2022/01/14 05:29:41;;;;;;;45.83;26.07;;;;;;;-4.55;70.96;93733.34;5025346;28;20205;-85
2022/01/14 05:32:12;;;;;;;34.23;23.83;;;;;;;-4.54;69.82;93728.09;5008716;28;20232;-86
2022/01/14 05:34:37;;;;;;;38.10;22.50;;;;;;;-4.57;71.12;93756.44;5025874;28;20242;-81
2022/01/14 05:37:04;;;;;;;32.87;21.83;;;;;;;-4.40;74.56;93734.28;5006163;28;20231;-91
2022/01/14 05:39:33;;;;;;;26.47;20.20;;;;;;;-4.68;70.48;93703.25;5007848;28;20211;-91
2022/01/14 05:42:00;;;;;;;27.37;19.03;;;;;;;-4.42;70.20;93739.53;5021802;28;20222;-87
2022/01/14 05:44:28;;;;;;;20.77;16.47;;;;;;;-4.42;71.43;93748.94;5023066;28;20195;-90
2022/01/14 05:46:57;;;;;;;27.70;18.20;;;;;;;-4.26;71.06;93738.72;5025332;28;20223;-90
2022/01/14 05:49:23;;;;;;;26.40;18.83;;;;;;;-4.40;70.94;93707.03;5008520;28;20187;-90
2022/01/14 05:51:49;;;;;;;24.63;18.00;;;;;;;-4.30;71.77;93729.81;5007161;28;20258;-90
2022/01/14 05:54:16;;;;;;;25.37;17.23;;;;;;;-4.19;71.34;93703.97;5021405;28;20187;-91
2022/01/14 05:56:42;;;;;;;21.97;19.03;;;;;;;-4.14;71.76;93701.75;5008372;28;20258;-90
2022/01/14 05:59:08;;;;;;;24.10;17.77;;;;;;;-3.93;72.39;93727.47;5008551;28;20183;-88
2022/01/14 06:01:33;;;;;;;19.20;16.83;;;;;;;-3.56;74.64;93732.75;5008718;28;20238;-92
2022/01/14 06:04:00;;;;;;;24.97;19.07;;;;;;;-3.62;70.13;93723.22;5008686;28;20184;-85
2022/01/14 06:06:26;;;;;;;29.10;21.37;;;;;;;-3.81;71.36;93716.75;5009889;28;20231;-87
2022/01/14 06:08:52;;;;;;;27.97;20.53;;;;;;;-3.91;71.60;93694.97;5010440;28;20214;-90
2022/01/14 06:11:18;;;;;;;29.43;20.80;;;;;;;-3.66;70.80;93711.75;5010095;28;20220;-87
2022/01/14 06:13:44;;;;;;;27.23;18.27;;;;;;;-3.73;69.74;93716.72;5011768;28;20205;-89
2022/01/14 06:16:10;;;;;;;29.30;21.00;;;;;;;-3.75;69.37;93717.88;5024431;28;20223;-87
2022/01/14 06:18:36;;;;;;;35.00;21.80;;;;;;;-3.67;70.32;93731.38;5009214;28;20270;-82
2022/01/14 06:21:01;;;;;;;38.53;22.67;;;;;;;-3.77;71.20;93720.59;5007331;28;20223;-88
2022/01/14 06:23:27;;;;;;;26.80;19.50;;;;;;;-3.61;71.54;93719.72;5010566;28;20210;-90
2022/01/14 06:25:52;;;;;;;26.53;19.30;;;;;;;-3.38;71.62;93725.66;5008152;28;20223;-86
2022/01/14 06:28:17;;;;;;;31.77;21.27;;;;;;;-2.93;69.50;93723.16;5008148;28;20187;-85
2022/01/14 06:30:43;;;;;;;30.90;20.87;;;;;;;-3.07;70.47;93729.00;5008520;28;20231;-84
2022/01/14 06:33:09;;;;;;;28.03;20.63;;;;;;;-3.01;69.17;93720.66;5009143;28;20190;-84
2022/01/14 06:35:34;;;;;;;26.20;19.83;;;;;;;-3.12;69.21;93713.38;5006627;28;20249;-86
2022/01/14 06:38:00;;;;;;;27.93;19.63;;;;;;;-2.83;67.97;93731.38;5009358;28;20211;-87
2022/01/14 06:40:27;;;;;;;28.63;20.17;;;;;;;-2.88;69.70;93712.41;5008654;28;20224;-83
2022/01/14 06:42:53;;;;;;;28.97;19.03;;;;;;;-2.92;69.21;93734.94;5007578;28;20188;-83
2022/01/14 06:45:20;;;;;;;30.87;21.43;;;;;;;-2.87;70.23;93729.31;5009638;28;20184;-81
2022/01/14 06:47:45;;;;;;;30.23;19.90;;;;;;;-2.57;68.82;93726.72;5008267;28;20192;-81
2022/01/14 06:50:11;;;;;;;33.07;20.53;;;;;;;-2.99;71.58;93700.84;5009815;28;20198;-79
2022/01/14 06:52:37;;;;;;;31.93;19.97;;;;;;;-2.68;71.42;93718.66;5009102;28;20238;-79
2022/01/14 06:55:03;;;;;;;27.83;20.20;;;;;;;-2.68;71.61;93686.25;5008324;28;20183;-80
2022/01/14 06:57:29;;;;;;;33.00;22.07;;;;;;;-2.81;71.57;93685.22;5009404;28;20219;-79
2022/01/14 06:59:54;;;;;;;30.97;23.00;;;;;;;-2.21;70.93;93709.75;5010320;28;20202;-79
2022/01/14 07:02:20;;;;;;;33.70;24.40;;;;;;;-2.40;71.79;93684.72;5008706;28;20286;-79
2022/01/14 07:04:46;;;;;;;34.67;23.40;;;;;;;-2.13;70.96;93683.28;5009152;28;20209;-79
2022/01/14 07:07:11;;;;;;;34.37;21.93;;;;;;;-1.62;70.32;93688.31;5007844;28;20257;-80
2022/01/14 07:09:38;;;;;;;26.83;20.17;;;;;;;-1.59;70.15;93696.59;5008914;28;20184;-81
2022/01/14 07:12:04;;;;;;;34.93;21.03;;;;;;;-1.62;70.71;93670.38;5006782;28;20250;-79
2022/01/14 07:14:30;;;;;;;28.20;21.90;;;;;;;-1.42;71.02;93674.94;5007921;28;20247;-79
2022/01/14 07:16:57;;;;;;;27.10;21.73;;;;;;;-1.00;69.56;93680.13;5011223;28;20235;-80
2022/01/14 07:19:23;;;;;;;36.23;22.93;;;;;;;-1.06;70.07;93678.28;5012180;28;20267;-78
2022/01/14 07:21:49;;;;;;;30.77;23.17;;;;;;;-1.06;70.00;93652.66;5013743;28;20229;-80
2022/01/14 07:24:15;;;;;;;33.50;24.13;;;;;;;-1.16;71.68;93670.09;5011923;28;20187;-80
2022/01/14 07:26:41;;;;;;;31.70;20.60;;;;;;;-1.28;72.59;93648.50;5013085;28;20691;-80
2022/01/14 07:29:07;;;;;;;28.00;20.33;;;;;;;-1.22;75.08;93673.38;5012585;28;20218;-80
2022/01/14 07:31:33;;;;;;;17.17;15.37;;;;;;;-1.22;78.38;93663.13;5011693;28;20243;-80
2022/01/14 07:33:59;;;;;;;15.20;13.63;;;;;;;-1.09;80.74;93663.28;5013085;28;20180;-79
2022/01/14 07:36:24;;;;;;;12.60;11.57;;;;;;;-0.83;82.32;93666.06;5011688;28;20227;-80
2022/01/14 07:38:50;;;;;;;12.47;11.37;;;;;;;-1.01;82.51;93629.84;5013348;28;20271;-80
2022/01/14 07:41:16;;;;;;;11.87;10.97;;;;;;;-0.90;83.62;93642.94;5010704;28;20284;-80
2022/01/14 07:43:46;;;;;;;11.37;10.67;;;;;;;-0.68;84.05;93656.53;5012646;28;20203;-81
2022/01/14 07:46:12;;;;;;;11.87;10.87;;;;;;;-0.66;83.88;93655.38;5010929;28;20246;-81
2022/01/14 07:48:37;;;;;;;11.00;10.20;;;;;;;-0.60;83.38;93653.84;5012408;28;20210;-80
2022/01/14 07:51:03;;;;;;;12.13;11.27;;;;;;;-0.69;83.28;93631.88;5027095;28;20323;-81
2022/01/14 07:53:28;;;;;;;12.33;11.47;;;;;;;-0.59;83.41;93637.50;5011493;28;20232;-80
2022/01/14 07:55:55;;;;;;;13.70;12.80;;;;;;;-0.68;84.18;93618.88;5011286;28;20231;-80
2022/01/14 07:58:21;;;;;;;13.23;12.27;;;;;;;-0.49;83.41;93615.69;5011398;28;20291;-81
2022/01/14 08:00:46;;;;;;;12.93;12.13;;;;;;;-0.39;84.01;93605.84;5011099;28;20223;-81
2022/01/14 08:03:12;;;;;;;13.83;12.70;;;;;;;-0.17;83.85;93630.47;5012800;28;20198;-80
2022/01/14 08:05:38;;;;;;;12.13;11.43;;;;;;;-0.28;85.31;93615.59;5012599;28;20231;-81
2022/01/14 08:08:07;;;;;;;13.53;12.73;;;;;;;-0.14;83.29;93642.13;5011512;28;20191;-79
2022/01/14 08:10:32;;;;;;;13.10;12.10;;;;;;;-0.17;83.72;93630.47;5010732;28;20191;-81
2022/01/14 08:12:58;;;;;;;13.27;12.27;;;;;;;-0.13;83.78;93626.56;5012071;28;20198;-80
2022/01/14 08:15:24;;;;;;;11.47;10.67;;;;;;;-0.31;82.81;93608.28;5010760;28;20199;-81
2022/01/14 08:17:49;;;;;;;13.47;12.27;;;;;;;-0.41;83.41;93601.91;5011546;28;20230;-81
2022/01/14 08:20:15;;;;;;;12.20;11.30;;;;;;;-0.13;83.08;93623.19;5011292;28;21159;-80
2022/01/14 08:22:40;;;;;;;12.83;11.93;;;;;;;-0.20;82.66;93622.34;5010385;28;20208;-80
2022/01/14 08:25:06;;;;;;;12.23;11.33;;;;;;;-0.12;82.30;93647.84;5013037;28;20187;-80
2022/01/14 08:27:32;;;;;;;11.63;10.73;;;;;;;-0.13;82.46;93636.03;5025793;28;20238;-78
2022/01/14 08:29:57;;;;;;;15.47;14.07;;;;;;;-0.05;81.96;93628.16;5012536;28;20228;-81
2022/01/14 08:32:23;;;;;;;15.63;14.43;;;;;;;0.00;81.49;93620.72;5011634;28;20236;-80
2022/01/14 08:34:50;;;;;;;12.97;12.03;;;;;;;0.04;80.93;93614.19;5011770;28;20207;-82
2022/01/14 08:37:16;;;;;;;12.40;11.40;;;;;;;-0.04;81.07;93609.22;5011866;28;20219;-79
2022/01/14 08:39:41;;;;;;;12.17;11.30;;;;;;;-0.03;81.00;93600.53;5011097;28;20234;-78
2022/01/14 08:42:09;;;;;;;11.77;10.83;;;;;;;-0.09;81.41;93594.38;5009911;28;20223;-80
2022/01/14 08:44:36;;;;;;;16.23;15.03;;;;;;;0.07;80.69;93606.13;5010766;28;20196;-82
2022/01/14 08:47:09;;;;;;;14.33;13.13;;;;;;;-0.09;80.75;93601.28;5011285;28;20230;-81
2022/01/14 08:49:37;;;;;;;13.60;12.70;;;;;;;-0.07;80.50;93600.13;5012445;28;20179;-81
2022/01/14 08:52:03;;;;;;;14.03;13.00;;;;;;;-0.19;80.85;93586.22;5010618;28;20220;-81
2022/01/14 08:54:28;;;;;;;13.23;12.13;;;;;;;-0.62;80.56;93517.34;5011259;28;20210;-80
2022/01/14 08:56:54;;;;;;;13.77;12.83;;;;;;;-0.31;80.64;93561.31;5010606;28;20233;-81
2022/01/14 08:59:19;;;;;;;11.23;10.47;;;;;;;0.03;79.93;93593.84;5011610;28;20210;-80
2022/01/14 09:01:45;;;;;;;12.10;11.30;;;;;;;0.00;80.30;93584.78;5009763;28;20242;-81
2022/01/14 09:04:11;;;;;;;12.60;11.73;;;;;;;-0.08;79.79;93578.00;5011346;28;20206;-79
2022/01/14 09:06:36;;;;;;;13.30;12.30;;;;;;;0.04;79.76;93578.25;5011367;28;20295;-79
2022/01/14 09:09:02;;;;;;;13.17;12.17;;;;;;;0.20;79.14;93575.38;5009415;28;20191;-80
2022/01/14 09:11:28;;;;;;;13.23;12.17;;;;;;;0.14;78.91;93573.53;5011589;28;20227;-80
2022/01/14 09:13:53;;;;;;;12.67;11.53;;;;;;;0.25;78.98;93585.84;5011449;28;20199;-80
2022/01/14 09:16:20;;;;;;;12.13;11.23;;;;;;;0.04;79.21;93575.69;5011520;28;20364;-80
2022/01/14 09:18:47;;;;;;;13.10;11.90;;;;;;;-0.18;79.20;93563.94;5011219;28;20203;-80
2022/01/14 09:21:12;;;;;;;12.43;11.43;;;;;;;0.05;79.23;93586.75;5025626;28;20227;-80
2022/01/14 09:23:38;;;;;;;14.27;13.33;;;;;;;-0.32;78.92;93513.56;5011396;28;20196;-81
2022/01/14 09:26:03;;;;;;;13.60;12.47;;;;;;;0.13;78.17;93551.44;5009670;28;20230;-81
2022/01/14 09:28:29;;;;;;;13.30;12.07;;;;;;;0.35;78.60;93558.03;5011552;28;20263;-81
2022/01/14 09:30:55;;;;;;;13.37;12.13;;;;;;;0.55;76.61;93574.28;5009974;28;20219;-79
2022/01/14 09:33:21;;;;;;;13.67;12.57;;;;;;;0.36;76.64;93539.06;5008407;28;20203;-80
2022/01/14 09:35:47;;;;;;;13.33;12.23;;;;;;;0.54;76.45;93559.84;5009781;28;20283;-80
2022/01/14 09:38:13;;;;;;;12.97;11.97;;;;;;;0.48;76.34;93558.06;5009195;28;20286;-80
2022/01/14 09:40:43;;;;;;;12.93;11.93;;;;;;;0.49;76.14;93554.50;5008542;28;20242;-80
2022/01/14 09:43:11;;;;;;;13.23;12.33;;;;;;;0.33;77.59;93521.47;5011383;28;20176;-81
2022/01/14 09:45:37;;;;;;;13.77;12.67;;;;;;;0.65;75.92;93550.78;5011155;28;20783;-79
2022/01/14 09:48:02;;;;;;;12.93;11.73;;;;;;;0.49;75.65;93549.38;5010646;28;20197;-80
2022/01/14 09:50:28;;;;;;;13.97;12.97;;;;;;;0.46;76.23;93554.09;5010560;28;20299;-80
2022/01/14 09:52:54;;;;;;;12.07;11.07;;;;;;;0.44;76.56;93549.16;5009525;28;20220;-80
2022/01/14 09:55:20;;;;;;;13.13;11.93;;;;;;;0.34;76.46;93532.53;5010564;28;20268;-79
2022/01/14 09:57:46;;;;;;;13.53;12.40;;;;;;;0.49;75.97;93522.88;5008980;28;20223;-79
2022/01/14 10:00:12;;;;;;;12.67;11.53;;;;;;;0.63;76.32;93517.56;5010100;28;20188;-80
2022/01/14 10:02:44;;;;;;;13.90;12.90;;;;;;;0.72;75.13;93518.97;5010653;28;20222;-80
2022/01/14 10:05:31;;;;;;;12.63;11.63;;;;;;;0.88;74.90;93508.31;5010050;28;20195;-80
2022/01/14 10:08:09;;;;;;;14.10;12.90;;;;;;;0.72;74.74;93497.59;5009249;28;20207;-80
2022/01/14 10:10:37;;;;;;;12.73;11.73;;;;;;;0.81;74.84;93506.72;5009542;28;20269;-80
2022/01/14 10:13:34;;;;;;;11.60;10.67;;;;;;;0.59;74.23;93474.50;5010366;28;20192;-81
2022/01/14 10:16:06;;;;;;;11.97;10.97;;;;;;;0.83;74.73;93502.97;4999509;28;20232;-80
2022/01/14 10:18:35;;;;;;;13.80;12.50;;;;;;;0.65;74.91;93497.63;5009432;28;20212;-81
2022/01/14 10:21:04;;;;;;;12.40;11.57;;;;;;;0.74;75.19;93500.78;5023636;28;20223;-80
2022/01/14 10:23:48;;;;;;;13.13;12.23;;;;;;;0.72;75.22;93498.41;5009669;28;20299;-80
2022/01/14 10:26:16;;;;;;;12.93;12.03;;;;;;;0.54;75.68;93484.56;5008947;28;20223;-81
2022/01/14 10:28:45;;;;;;;14.27;13.20;;;;;;;0.65;75.62;93476.28;5009690;28;20180;-79
2022/01/14 10:31:12;;;;;;;13.40;12.50;;;;;;;0.78;75.09;93450.59;5007997;28;20250;-81
2022/01/14 10:33:37;;;;;;;13.63;12.57;;;;;;;0.94;74.41;93471.53;5009605;28;20247;-82
2022/01/14 10:36:04;;;;;;;14.17;13.13;;;;;;;0.97;74.37;93476.25;5008474;28;20232;-81
2022/01/14 10:38:46;;;;;;;13.90;12.90;;;;;;;0.75;75.59;93456.09;5009106;28;20200;-79
2022/01/14 10:41:11;;;;;;;14.23;13.10;;;;;;;0.77;75.32;93434.38;5024979;28;20246;-80
2022/01/14 10:43:38;;;;;;;13.87;12.60;;;;;;;0.91;74.54;93461.66;5008521;28;20196;-80
2022/01/14 10:46:06;;;;;;;13.40;12.50;;;;;;;1.10;74.50;93445.41;5008844;28;20236;-81
2022/01/14 10:48:37;;;;;;;13.77;12.67;;;;;;;1.42;74.09;93459.97;5009767;28;20192;-85
2022/01/14 10:51:05;;;;;;;13.83;12.83;;;;;;;1.41;73.02;93452.44;5006172;28;20242;-82
2022/01/14 10:53:43;;;;;;;15.10;13.80;;;;;;;1.58;73.34;93433.78;5009170;28;20195;-82
2022/01/14 10:56:10;;;;;;;12.87;11.87;;;;;;;1.94;71.91;93432.44;5009315;28;20238;-83
2022/01/14 10:58:41;;;;;;;13.53;12.63;;;;;;;1.93;71.06;93431.63;5007654;28;20218;-84
2022/01/14 11:01:17;;;;;;;13.03;11.97;;;;;;;1.89;71.26;93403.94;5009451;28;20223;-82
2022/01/14 11:03:43;;;;;;;14.93;13.63;;;;;;;2.01;71.37;93422.91;5009645;28;20214;-84
2022/01/14 11:06:18;;;;;;;13.33;12.43;;;;;;;2.08;70.78;93409.00;5008804;28;20242;-82
2022/01/14 11:08:45;;;;;;;13.97;12.73;;;;;;;2.25;71.02;93393.81;5009628;28;20226;-83
2022/01/14 11:11:11;;;;;;;17.33;15.63;;;;;;;2.46;70.78;93416.66;5007242;28;20306;-84
2022/01/14 11:13:37;;;;;;;14.03;12.77;;;;;;;2.56;69.64;93393.78;5007137;28;20188;-84
2022/01/14 11:16:03;;;;;;;15.17;13.97;;;;;;;2.47;68.96;93377.81;5007439;28;20238;-83
2022/01/14 11:18:28;;;;;;;13.10;12.17;;;;;;;2.65;68.74;93384.78;5008447;28;20222;-82
2022/01/14 11:23:38;;;;;;;12.87;11.87;;;;;;;2.54;68.04;93378.53;5009411;28;20238;-82
2022/01/14 11:26:07;;;;;;;11.67;10.87;;;;;;;2.59;68.54;93372.72;5007308;28;20219;-82
2022/01/14 11:28:40;;;;;;;10.97;10.27;;;;;;;2.54;68.77;93367.41;5009234;28;20213;-81
2022/01/14 11:31:27;;;;;;;12.00;11.17;;;;;;;2.64;67.78;93354.84;5008090;28;20230;-83
2022/01/14 11:33:54;;;;;;;12.83;11.93;;;;;;;2.77;67.86;93352.16;5006978;28;20203;-81
2022/01/14 11:36:20;;;;;;;11.20;10.50;;;;;;;2.75;67.12;93343.84;5008060;28;20219;-81
2022/01/14 11:38:47;;;;;;;10.90;10.10;;;;;;;2.72;66.94;93332.19;5008600;28;20956;-81
2022/01/14 11:41:16;;;;;;;12.13;11.13;;;;;;;2.88;66.70;93339.34;5008992;28;20223;-79
2022/01/14 11:43:51;;;;;;;11.67;10.87;;;;;;;3.00;66.09;93305.91;5009401;28;20206;-82
2022/01/14 11:46:32;;;;;;;12.07;11.37;;;;;;;3.19;64.76;93323.72;5009249;28;20253;-82
2022/01/14 11:48:59;;;;;;;12.23;11.33;;;;;;;3.04;65.02;93304.47;5006620;28;20196;-79
2022/01/14 11:51:25;;;;;;;12.10;11.17;;;;;;;3.23;64.83;93306.03;5009033;28;20227;-80